Time;durP1;ratioP1;P1;durP2;ratioP2;P2;SDS_P1;SDS_P2;PMS_P1;PMS_P2;Temp;Humidity;BMP_temperature;BMP_pressure;BME280_temperature;BME280_humidity;BME280_pressure;Samples;Min_cycle;Max_cycle;Signal;HPM_P1;HPM_P2
2023/06/23 00:01:17;;;;;;;17.67;12.65;;;24.40;99.90;;;;;;5038219;28;20208;-78
2023/06/23 00:03:45;;;;;;;14.02;12.48;;;24.40;99.90;;;;;;5038239;28;20172;-80
2023/06/23 00:06:18;;;;;;;16.25;13.10;;;24.30;99.90;;;;;;5049068;28;20697;-80
2023/06/23 00:08:47;;;;;;;15.82;12.65;;;24.30;99.90;;;;;;5042060;28;20200;-80
2023/06/23 00:11:13;;;;;;;13.90;12.43;;;24.30;99.90;;;;;;5040377;28;20251;-78
2023/06/23 00:13:39;;;;;;;15.98;12.77;;;24.40;99.90;;;;;;5019088;28;20200;-81
2023/06/23 00:16:06;;;;;;;17.08;12.73;;;24.30;99.90;;;;;;5037107;28;20300;-80
2023/06/23 00:18:37;;;;;;;14.45;12.85;;;24.30;99.90;;;;;;5042080;28;20164;-80
2023/06/23 00:21:08;;;;;;;16.90;12.60;;;24.30;99.90;;;;;;5038110;28;20601;-79
2023/06/23 00:23:35;;;;;;;14.25;12.15;;;24.20;99.90;;;;;;5036672;28;20663;-79
2023/06/23 00:26:03;;;;;;;13.70;12.30;;;24.20;99.90;;;;;;5040574;28;20176;-78
2023/06/23 00:28:29;;;;;;;17.58;12.93;;;24.10;99.90;;;;;;5040016;28;20165;-80
2023/06/23 00:30:55;;;;;;;16.88;13.00;;;24.10;99.90;;;;;;5018508;28;20203;-78
2023/06/23 00:33:21;;;;;;;14.60;12.45;;;24.00;99.90;;;;;;5036445;28;20165;-78
2023/06/23 00:35:47;;;;;;;15.18;12.10;;;24.00;99.90;;;;;;5035999;28;20208;-80
2023/06/23 00:38:13;;;;;;;17.63;12.55;;;24.00;99.90;;;;;;5036001;28;20165;-79
2023/06/23 00:40:40;;;;;;;19.63;12.68;;;23.90;99.90;;;;;;5036345;28;20648;-78
2023/06/23 00:43:07;;;;;;;14.18;12.68;;;23.90;99.90;;;;;;5036498;28;20741;-80
2023/06/23 00:45:32;;;;;;;14.20;12.27;;;23.90;99.90;;;;;;5044216;28;20688;-83
2023/06/23 00:48:01;;;;;;;17.10;13.20;;;23.90;99.90;;;;;;5041715;28;20180;-79
2023/06/23 00:50:27;;;;;;;16.08;12.90;;;24.00;99.90;;;;;;5036428;28;20186;-79
2023/06/23 00:52:53;;;;;;;15.35;13.00;;;23.90;99.90;;;;;;5041644;28;20188;-82
2023/06/23 00:55:22;;;;;;;18.10;12.85;;;23.90;99.90;;;;;;5036408;28;20167;-80
2023/06/23 00:57:52;;;;;;;17.52;13.88;;;23.90;99.90;;;;;;5036803;28;20180;-78
2023/06/23 01:00:19;;;;;;;17.02;13.63;;;23.80;99.90;;;;;;5036982;28;20226;-80
2023/06/23 01:02:49;;;;;;;17.50;13.93;;;23.90;99.90;;;;;;5037098;28;20637;-79
2023/06/23 01:05:29;;;;;;;16.35;12.65;;;23.90;99.90;;;;;;5036085;28;20180;-78
2023/06/23 01:08:03;;;;;;;13.80;12.30;;;23.80;99.90;;;;;;5039518;28;20160;-80
2023/06/23 01:10:39;;;;;;;17.17;12.43;;;23.80;99.90;;;;;;5045501;28;20179;-80
2023/06/23 01:13:33;;;;;;;14.83;13.23;;;23.80;99.90;;;;;;5044914;28;20163;-79
2023/06/23 01:16:09;;;;;;;17.00;14.10;;;23.80;99.90;;;;;;5036569;28;20211;-78
2023/06/23 01:19:09;;;;;;;18.75;13.32;;;23.80;99.90;;;;;;5035342;28;20164;-80
2023/06/23 01:21:54;;;;;;;15.45;12.52;;;23.90;99.90;;;;;;5031036;28;20192;-82
2023/06/23 01:24:38;;;;;;;14.63;12.95;;;23.80;99.90;;;;;;5017374;28;20200;-81
2023/06/23 01:27:45;;;;;;;13.55;12.15;;;23.80;99.90;;;;;;5034959;28;20157;-80
2023/06/23 01:30:14;;;;;;;15.45;12.60;;;23.90;99.90;;;;;;4957951;29;20335;-78
2023/06/23 01:32:54;;;;;;;15.38;13.25;;;23.80;99.90;;;;;;4954914;29;20171;-80
2023/06/23 01:35:31;;;;;;;17.77;12.68;;;23.80;99.90;;;;;;5003523;28;20251;-79
2023/06/23 01:38:06;;;;;;;13.65;12.30;;;23.80;99.90;;;;;;5035027;28;20168;-81
2023/06/23 01:40:33;;;;;;;16.00;13.07;;;23.80;99.90;;;;;;5035259;28;20152;-80
2023/06/23 01:43:04;;;;;;;16.77;12.95;;;23.80;99.90;;;;;;5035100;28;20173;-81
2023/06/23 01:45:30;;;;;;;14.35;12.32;;;23.80;99.90;;;;;;5056366;28;20200;-80
2023/06/23 01:48:01;;;;;;;14.68;13.25;;;23.70;99.90;;;;;;5035512;28;20177;-78
2023/06/23 01:50:28;;;;;;;17.98;13.05;;;23.70;99.90;;;;;;5035244;28;20648;-81
2023/06/23 01:52:56;;;;;;;15.68;12.25;;;23.60;99.90;;;;;;5035116;28;20176;-79
2023/06/23 01:55:24;;;;;;;14.05;12.65;;;23.60;99.90;;;;;;5027182;28;20182;-79
2023/06/23 01:57:51;;;;;;;15.07;13.32;;;23.60;99.90;;;;;;5050933;28;20321;-78
2023/06/23 02:00:21;;;;;;;14.13;12.55;;;23.50;99.90;;;;;;5048978;28;20161;-77
2023/06/23 02:02:51;;;;;;;21.40;13.40;;;23.40;99.90;;;;;;5035003;28;20260;-77
2023/06/23 02:05:19;;;;;;;20.33;13.18;;;23.40;99.90;;;;;;5034568;28;20173;-76
2023/06/23 02:07:47;;;;;;;15.07;12.43;;;23.30;99.90;;;;;;5016575;28;20176;-79
2023/06/23 02:10:16;;;;;;;15.82;12.68;;;23.30;99.90;;;;;;5034436;28;20176;-79
2023/06/23 02:12:44;;;;;;;14.32;12.82;;;23.30;99.90;;;;;;5034273;28;20231;-79
2023/06/23 02:15:12;;;;;;;16.55;13.40;;;23.30;99.90;;;;;;5034385;28;20177;-78
2023/06/23 02:17:40;;;;;;;17.02;13.27;;;23.30;99.90;;;;;;5037667;28;20233;-76
2023/06/23 02:20:15;;;;;;;18.73;13.23;;;23.20;99.90;;;;;;5033268;28;20161;-76
2023/06/23 02:22:46;;;;;;;16.85;12.85;;;23.20;99.90;;;;;;5034455;28;20163;-76
2023/06/23 02:25:13;;;;;;;15.13;13.35;;;23.20;99.90;;;;;;5034187;28;20157;-76
2023/06/23 02:27:40;;;;;;;19.23;14.20;;;23.10;99.90;;;;;;5033848;28;20662;-78
2023/06/23 02:30:07;;;;;;;18.38;13.88;;;23.10;99.90;;;;;;5034260;28;20323;-76
2023/06/23 02:32:35;;;;;;;16.77;13.07;;;23.10;99.90;;;;;;5033655;28;20259;-77
2023/06/23 02:35:06;;;;;;;14.95;12.80;;;23.10;99.90;;;;;;5033693;28;20173;-77
2023/06/23 02:37:33;;;;;;;16.70;14.25;;;23.10;99.90;;;;;;5016240;28;20668;-78
2023/06/23 02:40:08;;;;;;;17.77;13.98;;;23.10;99.90;;;;;;5033945;28;20172;-77
2023/06/23 02:42:39;;;;;;;16.67;13.85;;;23.00;99.90;;;;;;5018496;28;20191;-79
2023/06/23 02:45:12;;;;;;;17.95;12.50;;;23.00;99.90;;;;;;5039828;28;20168;-77
2023/06/23 02:47:39;;;;;;;18.97;13.37;;;23.00;99.90;;;;;;5033661;28;20165;-76
2023/06/23 02:50:08;;;;;;;15.50;13.13;;;22.90;99.90;;;;;;5033693;28;20176;-77
2023/06/23 02:52:34;;;;;;;18.08;13.77;;;23.00;99.90;;;;;;5033469;28;20637;-76
2023/06/23 02:55:03;;;;;;;14.85;12.73;;;22.90;99.90;;;;;;5033310;28;20220;-77
2023/06/23 02:57:31;;;;;;;16.70;13.33;;;22.90;99.90;;;;;;5033310;28;20200;-76
2023/06/23 03:00:00;;;;;;;15.13;13.30;;;22.90;99.90;;;;;;5033723;28;20654;-79
2023/06/23 03:02:28;;;;;;;18.90;13.18;;;22.90;99.90;;;;;;5033486;28;20168;-76
2023/06/23 03:04:57;;;;;;;14.38;12.95;;;22.80;99.90;;;;;;5033255;28;20168;-79
2023/06/23 03:07:23;;;;;;;13.93;12.47;;;22.80;99.90;;;;;;5033244;28;20702;-78
2023/06/23 03:09:50;;;;;;;13.77;12.33;;;22.70;99.90;;;;;;5033399;28;20230;-76
2023/06/23 03:12:15;;;;;;;16.60;13.57;;;22.70;99.90;;;;;;5033415;28;20179;-79
2023/06/23 03:14:43;;;;;;;18.63;12.90;;;22.70;99.90;;;;;;5033389;28;20180;-78
2023/06/23 03:17:21;;;;;;;15.57;13.70;;;22.60;99.90;;;;;;5015606;28;20266;-78
2023/06/23 03:19:53;;;;;;;15.57;13.10;;;22.60;99.90;;;;;;5033360;28;20254;-77
2023/06/23 03:22:26;;;;;;;19.27;14.37;;;22.50;99.90;;;;;;5033533;28;20169;-78
2023/06/23 03:24:56;;;;;;;21.73;14.10;;;22.50;99.90;;;;;;5040841;28;20157;-80
2023/06/23 03:27:25;;;;;;;18.73;14.00;;;22.50;99.90;;;;;;5017938;28;20275;-78
2023/06/23 03:29:58;;;;;;;18.57;13.90;;;22.60;99.90;;;;;;5034386;28;20656;-78
2023/06/23 03:32:30;;;;;;;16.30;13.27;;;22.70;99.90;;;;;;5038130;28;20222;-78
2023/06/23 03:35:04;;;;;;;15.43;12.83;;;22.70;99.90;;;;;;5055448;28;20156;-78
2023/06/23 03:37:32;;;;;;;17.00;13.50;;;22.80;99.90;;;;;;5023983;28;20235;-79
2023/06/23 03:40:06;;;;;;;16.60;14.73;;;22.80;99.90;;;;;;5038527;28;20199;-78
2023/06/23 03:42:39;;;;;;;14.47;12.97;;;22.80;99.90;;;;;;5038428;28;20192;-76
2023/06/23 03:45:08;;;;;;;14.27;12.50;;;22.90;99.90;;;;;;5036903;28;20195;-79
2023/06/23 03:47:36;;;;;;;17.50;13.63;;;22.90;99.90;;;;;;5036945;28;20172;-79
2023/06/23 03:50:11;;;;;;;15.23;13.03;;;22.90;99.90;;;;;;5037112;28;20165;-76
2023/06/23 03:52:39;;;;;;;16.07;12.43;;;22.80;99.90;;;;;;5037214;28;20179;-77
2023/06/23 03:55:07;;;;;;;18.83;13.43;;;22.90;99.90;;;;;;5036594;28;20290;-77
2023/06/23 03:57:34;;;;;;;17.17;13.00;;;22.90;99.90;;;;;;5039663;28;20276;-79
2023/06/23 04:00:03;;;;;;;17.13;13.60;;;22.90;99.90;;;;;;5044358;28;20177;-77
2023/06/23 04:02:31;;;;;;;15.87;13.13;;;22.90;99.90;;;;;;5020451;28;20192;-80
2023/06/23 04:04:59;;;;;;;15.87;12.53;;;23.00;99.90;;;;;;5036643;28;20187;-78
2023/06/23 04:07:26;;;;;;;17.80;13.40;;;23.00;99.90;;;;;;5036721;28;20180;-80
2023/06/23 04:09:53;;;;;;;16.70;13.32;;;23.10;99.90;;;;;;5036488;28;20226;-79
2023/06/23 04:12:21;;;;;;;14.82;12.50;;;23.10;99.90;;;;;;5036951;28;20354;-78
2023/06/23 04:14:51;;;;;;;13.40;12.00;;;23.20;99.90;;;;;;5027070;28;20195;-77
2023/06/23 04:17:21;;;;;;;15.95;11.95;;;23.20;99.90;;;;;;5018933;28;20219;-78
2023/06/23 04:19:50;;;;;;;16.17;11.55;;;23.20;99.90;;;;;;5038555;28;20168;-78
2023/06/23 04:22:19;;;;;;;12.70;11.10;;;23.30;99.90;;;;;;5038152;28;20195;-79
2023/06/23 04:24:47;;;;;;;18.33;12.07;;;23.20;99.90;;;;;;5036547;28;20212;-79
2023/06/23 04:27:16;;;;;;;14.63;11.40;;;23.20;99.90;;;;;;5036303;28;20230;-78
2023/06/23 04:29:45;;;;;;;18.60;12.33;;;23.30;99.90;;;;;;5036293;28;20204;-77
2023/06/23 04:32:13;;;;;;;17.70;12.40;;;23.30;99.90;;;;;;5018454;28;20187;-78
2023/06/23 04:34:39;;;;;;;13.77;11.50;;;23.30;99.90;;;;;;5036306;28;20176;-81
2023/06/23 04:37:23;;;;;;;13.80;11.80;;;23.30;99.90;;;;;;5035997;28;20254;-79
2023/06/23 04:40:26;;;;;;;17.35;12.05;;;23.30;99.90;;;;;;5018122;28;20568;-77
2023/06/23 04:42:53;;;;;;;17.23;11.60;;;23.30;99.90;;;;;;5032087;28;20184;-77
2023/06/23 04:45:26;;;;;;;14.33;11.37;;;23.40;99.90;;;;;;5036880;28;20655;-78
2023/06/23 04:48:01;;;;;;;16.27;11.80;;;23.40;99.90;;;;;;5043060;28;20165;-78
2023/06/23 04:50:33;;;;;;;13.37;11.87;;;23.50;99.90;;;;;;5055411;28;20239;-78
2023/06/23 04:53:13;;;;;;;14.18;10.70;;;23.40;99.90;;;;;;5059176;28;20173;-79
2023/06/23 04:55:42;;;;;;;15.32;11.85;;;23.40;99.90;;;;;;5059433;28;20156;-79
2023/06/23 04:58:10;;;;;;;13.35;11.88;;;23.40;99.90;;;;;;5058910;28;20177;-77
2023/06/23 05:00:38;;;;;;;16.33;12.63;;;23.40;99.90;;;;;;5039546;28;20198;-78
2023/06/23 05:03:05;;;;;;;13.03;11.37;;;23.40;99.90;;;;;;5052745;28;20175;-76
2023/06/23 05:05:32;;;;;;;15.88;11.82;;;23.60;99.90;;;;;;5041403;28;20175;-77
2023/06/23 05:08:01;;;;;;;14.02;11.60;;;23.70;99.90;;;;;;5042213;28;20171;-76
2023/06/23 05:10:28;;;;;;;14.52;10.80;;;23.80;99.90;;;;;;5044995;28;20181;-79
2023/06/23 05:12:55;;;;;;;11.45;10.18;;;23.90;99.90;;;;;;5032550;28;20181;-78
2023/06/23 05:15:23;;;;;;;16.02;11.20;;;23.90;99.90;;;;;;5050516;28;20177;-78
2023/06/23 05:17:52;;;;;;;12.30;10.43;;;24.10;99.90;;;;;;5022096;28;20524;-80
2023/06/23 05:20:20;;;;;;;11.18;10.05;;;24.30;99.90;;;;;;5042369;28;20195;-79
2023/06/23 05:22:50;;;;;;;13.32;10.13;;;24.50;99.90;;;;;;5038285;28;20176;-77
2023/06/23 05:25:18;;;;;;;14.50;10.48;;;24.60;99.90;;;;;;5037541;28;20524;-79
2023/06/23 05:27:45;;;;;;;12.40;10.30;;;24.60;99.90;;;;;;5038361;28;20234;-78
2023/06/23 05:30:17;;;;;;;15.88;10.45;;;24.70;99.90;;;;;;5037890;28;20734;-81
2023/06/23 05:32:44;;;;;;;13.45;10.38;;;24.90;99.90;;;;;;5036684;28;20176;-78
2023/06/23 05:35:11;;;;;;;16.60;11.70;;;25.00;99.90;;;;;;5037049;28;20637;-80
2023/06/23 05:37:39;;;;;;;12.13;10.80;;;25.20;99.90;;;;;;5037793;28;20211;-78
2023/06/23 05:40:08;;;;;;;15.25;10.90;;;25.40;99.90;;;;;;5038055;28;20183;-79
2023/06/23 05:42:34;;;;;;;15.55;11.95;;;25.50;99.90;;;;;;5021801;28;20177;-78
2023/06/23 05:45:02;;;;;;;20.17;11.43;;;25.60;99.90;;;;;;5038612;28;20172;-79
2023/06/23 05:47:35;;;;;;;13.85;12.23;;;25.60;99.90;;;;;;5037920;28;20179;-79
2023/06/23 05:50:07;;;;;;;15.75;11.50;;;25.70;99.90;;;;;;5037949;28;20176;-76
2023/06/23 05:52:37;;;;;;;13.20;11.80;;;25.90;99.90;;;;;;5037327;28;20164;-80
2023/06/23 05:55:05;;;;;;;16.98;11.90;;;25.90;99.90;;;;;;5036519;28;20227;-78
2023/06/23 05:57:35;;;;;;;14.15;11.23;;;25.90;99.90;;;;;;5036459;28;20315;-78
2023/06/23 06:00:09;;;;;;;13.85;11.65;;;25.70;99.90;;;;;;5035711;28;20179;-75
2023/06/23 06:02:38;;;;;;;14.90;10.55;;;25.70;99.90;;;;;;5035696;28;20180;-80
2023/06/23 06:05:07;;;;;;;13.93;10.90;;;25.80;99.90;;;;;;5018054;28;20176;-76
2023/06/23 06:07:35;;;;;;;14.30;10.77;;;26.00;99.90;;;;;;5036493;28;20198;-76
2023/06/23 06:10:02;;;;;;;12.43;11.13;;;26.20;99.90;;;;;;5038708;28;20199;-76
2023/06/23 06:12:29;;;;;;;15.45;11.23;;;26.30;99.90;;;;;;5039207;28;20251;-77
2023/06/23 06:14:58;;;;;;;14.98;10.00;;;26.50;99.90;;;;;;5037335;28;20180;-76
2023/06/23 06:17:25;;;;;;;11.32;9.02;;;26.50;99.90;;;;;;5036137;28;20204;-76
2023/06/23 06:19:53;;;;;;;16.35;9.27;;;26.60;99.90;;;;;;5038616;28;20169;-78
2023/06/23 06:22:20;;;;;;;10.43;8.48;;;26.70;99.90;;;;;;5035782;28;20176;-77
2023/06/23 06:24:47;;;;;;;10.55;7.70;;;26.70;99.90;;;;;;5036593;28;20191;-79
2023/06/23 06:27:14;;;;;;;11.45;7.68;;;26.60;99.90;;;;;;5037372;28;20652;-79
2023/06/23 06:29:42;;;;;;;13.57;7.57;;;26.60;99.90;;;;;;5049770;28;20207;-79
2023/06/23 06:32:09;;;;;;;10.02;7.30;;;26.70;99.90;;;;;;5035501;28;20169;-80
2023/06/23 06:34:37;;;;;;;11.68;6.78;;;26.90;99.90;;;;;;5036437;28;20177;-79
2023/06/23 06:37:03;;;;;;;8.93;6.90;;;27.00;99.90;;;;;;5037890;28;20291;-78
2023/06/23 06:39:30;;;;;;;11.30;6.55;;;27.00;99.90;;;;;;5046971;28;20176;-79
2023/06/23 06:41:59;;;;;;;10.77;8.15;;;27.00;99.90;;;;;;5045035;28;20169;-78
2023/06/23 06:44:25;;;;;;;9.00;7.72;;;27.00;99.90;;;;;;5038086;28;20173;-78
2023/06/23 06:46:52;;;;;;;10.27;7.07;;;26.90;99.90;;;;;;5035872;28;20180;-81
2023/06/23 06:49:21;;;;;;;10.90;8.70;;;26.90;99.90;;;;;;5036329;28;20160;-77
2023/06/23 06:51:48;;;;;;;12.90;9.50;;;26.90;99.90;;;;;;5053287;28;20203;-79
2023/06/23 06:54:16;;;;;;;13.32;9.63;;;26.90;99.90;;;;;;5041239;28;20220;-77
2023/06/23 06:56:43;;;;;;;15.45;10.15;;;26.90;99.90;;;;;;5035702;28;20208;-78
2023/06/23 06:59:09;;;;;;;14.02;10.55;;;27.00;99.90;;;;;;5035551;28;20183;-78
2023/06/23 07:01:37;;;;;;;12.60;11.20;;;27.10;99.90;;;;;;5035324;28;20183;-79
2023/06/23 07:04:07;;;;;;;15.05;10.73;;;27.00;99.90;;;;;;5036369;28;20172;-79
2023/06/23 07:06:35;;;;;;;11.85;10.55;;;27.10;99.90;;;;;;5035935;28;20168;-77
2023/06/23 07:09:00;;;;;;;15.55;10.65;;;27.10;99.90;;;;;;5035792;28;20212;-79
2023/06/23 07:11:27;;;;;;;15.70;10.88;;;27.10;99.90;;;;;;5035856;28;20176;-80
2023/06/23 07:13:53;;;;;;;13.02;11.60;;;27.20;99.90;;;;;;5018767;28;20180;-79
2023/06/23 07:16:19;;;;;;;14.98;10.23;;;27.20;99.90;;;;;;5035440;28;20200;-81
2023/06/23 07:18:45;;;;;;;12.85;10.07;;;27.10;99.90;;;;;;5038606;28;20180;-79
2023/06/23 07:21:11;;;;;;;16.85;11.15;;;27.00;99.90;;;;;;5035011;28;20195;-77
2023/06/23 07:23:37;;;;;;;16.90;10.85;;;26.90;99.90;;;;;;5037667;28;20181;-81
2023/06/23 07:26:03;;;;;;;14.80;10.52;;;26.90;99.90;;;;;;5020547;28;20203;-82
2023/06/23 07:28:29;;;;;;;14.05;10.02;;;27.00;99.90;;;;;;5039317;28;20164;-81
2023/06/23 07:30:55;;;;;;;13.05;10.05;;;27.00;99.90;;;;;;5037956;28;20177;-80
2023/06/23 07:33:20;;;;;;;11.88;9.93;;;27.20;99.90;;;;;;5034294;28;20283;-80
2023/06/23 07:35:46;;;;;;;11.80;9.48;;;27.30;99.90;;;;;;5033800;28;20180;-78
2023/06/23 07:38:12;;;;;;;12.45;10.00;;;27.10;99.90;;;;;;5034055;28;20180;-80
2023/06/23 07:40:37;;;;;;;14.88;9.68;;;27.10;99.90;;;;;;5034103;28;20176;-81
2023/06/23 07:43:03;;;;;;;12.68;9.88;;;27.00;99.90;;;;;;5034664;28;20179;-77
2023/06/23 07:45:29;;;;;;;12.93;9.70;;;27.10;99.90;;;;;;5016406;28;20177;-79
2023/06/23 07:47:55;;;;;;;16.25;10.65;;;27.30;99.90;;;;;;5034092;28;20173;-81
2023/06/23 07:50:20;;;;;;;10.73;9.20;;;27.70;99.90;;;;;;5016341;28;20223;-81
2023/06/23 07:52:53;;;;;;;10.65;8.60;;;27.50;99.90;;;;;;5035681;28;20173;-78
2023/06/23 07:55:19;;;;;;;13.50;9.75;;;27.50;99.90;;;;;;5018095;28;20231;-80
2023/06/23 07:57:45;;;;;;;12.27;9.23;;;27.70;99.90;;;;;;5018262;28;20216;-79
2023/06/23 08:00:11;;;;;;;11.38;9.40;;;28.20;99.90;;;;;;5035694;28;20184;-79
2023/06/23 08:02:37;;;;;;;9.75;8.75;;;28.50;99.90;;;;;;5018193;28;20670;-80
2023/06/23 08:05:04;;;;;;;14.55;8.43;;;28.60;99.90;;;;;;5036104;28;20173;-80
2023/06/23 08:07:30;;;;;;;17.42;9.23;;;28.30;99.90;;;;;;5036361;28;20232;-80
2023/06/23 08:09:56;;;;;;;10.90;9.10;;;28.30;99.90;;;;;;5036021;28;20200;-81
2023/06/23 08:12:21;;;;;;;10.05;8.45;;;28.20;99.90;;;;;;5036039;28;20508;-80
2023/06/23 08:14:47;;;;;;;11.23;9.43;;;28.30;99.90;;;;;;5036071;28;20313;-79
2023/06/23 08:17:13;;;;;;;13.18;8.43;;;28.10;99.90;;;;;;5042704;28;20223;-79
2023/06/23 08:19:39;;;;;;;11.32;8.75;;;28.10;99.90;;;;;;5053568;28;20620;-79
2023/06/23 08:22:06;;;;;;;13.68;8.70;;;28.30;99.90;;;;;;5040901;28;20177;-80
2023/06/23 08:24:32;;;;;;;14.98;8.63;;;28.50;99.90;;;;;;5041665;28;20243;-78
2023/06/23 08:26:58;;;;;;;11.45;9.05;;;28.60;99.90;;;;;;5039747;28;20192;-81
2023/06/23 08:29:23;;;;;;;10.05;8.48;;;28.60;99.90;;;;;;5053490;28;20196;-81
2023/06/23 08:31:49;;;;;;;13.20;8.73;;;28.60;99.90;;;;;;5053385;28;20176;-79
2023/06/23 08:34:15;;;;;;;12.40;9.27;;;28.80;99.90;;;;;;5038606;28;20176;-80
2023/06/23 08:36:41;;;;;;;16.60;9.63;;;28.90;99.90;;;;;;5038726;28;20738;-79
2023/06/23 08:39:06;;;;;;;12.45;9.32;;;28.80;99.90;;;;;;5039473;28;20177;-81
2023/06/23 08:41:34;;;;;;;11.48;9.43;;;28.80;99.90;;;;;;5038362;28;20173;-81
2023/06/23 08:44:03;;;;;;;13.57;8.75;;;28.90;99.90;;;;;;5043323;28;20696;-80
2023/06/23 08:46:34;;;;;;;13.32;8.65;;;28.90;99.90;;;;;;5021003;28;20181;-79
2023/06/23 08:49:05;;;;;;;11.65;8.15;;;28.70;99.90;;;;;;5021318;28;20199;-80
2023/06/23 08:51:33;;;;;;;14.48;8.50;;;28.70;99.90;;;;;;5039212;28;20163;-80
2023/06/23 08:53:59;;;;;;;10.07;8.43;;;28.80;99.90;;;;;;5038316;28;20715;-79
2023/06/23 08:56:26;;;;;;;12.43;8.38;;;28.90;99.90;;;;;;5038613;28;20255;-81
2023/06/23 08:58:51;;;;;;;11.43;8.20;;;29.10;99.90;;;;;;5021704;28;20509;-81
2023/06/23 09:01:17;;;;;;;12.93;8.20;;;29.10;99.90;;;;;;5020780;28;20181;-80
2023/06/23 09:03:43;;;;;;;13.05;8.10;;;29.10;99.90;;;;;;5039216;28;20169;-79
2023/06/23 09:06:09;;;;;;;10.73;7.85;;;29.30;99.90;;;;;;5038442;28;20165;-79
2023/06/23 09:08:35;;;;;;;10.75;8.35;;;29.30;99.90;;;;;;5037575;28;20529;-80
2023/06/23 09:11:01;;;;;;;14.85;8.93;;;29.40;99.90;;;;;;5020343;28;20187;-81
2023/06/23 09:13:30;;;;;;;12.75;8.00;;;29.70;99.90;;;;;;5039464;28;20179;-79
2023/06/23 09:15:56;;;;;;;11.05;7.95;;;29.90;99.90;;;;;;5038737;28;20183;-81
2023/06/23 09:18:22;;;;;;;11.68;7.75;;;30.00;99.90;;;;;;5038124;28;20177;-81
2023/06/23 09:20:52;;;;;;;10.38;7.22;;;29.80;99.90;;;;;;5039119;28;20651;-81
2023/06/23 09:23:22;;;;;;;13.13;8.10;;;29.90;99.90;;;;;;5035746;28;20183;-81
2023/06/23 09:25:56;;;;;;;9.43;7.75;;;30.00;99.90;;;;;;5036468;28;20577;-80
2023/06/23 09:28:31;;;;;;;10.43;8.60;;;30.20;99.90;;;;;;5035384;28;20211;-81
2023/06/23 09:31:19;;;;;;;13.73;9.07;;;30.20;99.90;;;;;;5036307;28;20176;-79
2023/06/23 09:33:49;;;;;;;13.23;8.70;;;30.30;99.90;;;;;;5027241;28;20435;-81
2023/06/23 09:36:15;;;;;;;15.48;8.63;;;30.30;99.90;;;;;;5059502;28;20226;-81
2023/06/23 09:38:42;;;;;;;9.65;8.00;;;30.20;99.90;;;;;;5059486;28;20160;-80
2023/06/23 09:41:16;;;;;;;15.10;8.63;;;30.20;99.90;;;;;;5059993;28;20157;-82
2023/06/23 09:43:44;;;;;;;11.73;8.95;;;30.40;99.90;;;;;;5056484;28;20172;-77
2023/06/23 09:46:12;;;;;;;11.65;8.43;;;30.40;99.90;;;;;;5055360;28;20252;-78
2023/06/23 09:48:39;;;;;;;12.15;7.97;;;30.30;99.90;;;;;;5042711;28;20168;-78
2023/06/23 09:51:06;;;;;;;13.00;8.82;;;30.60;99.90;;;;;;5019260;28;20276;-77
2023/06/23 09:53:36;;;;;;;11.95;8.30;;;30.60;99.90;;;;;;5036393;28;20212;-79
2023/06/23 09:56:04;;;;;;;12.95;8.88;;;30.50;99.90;;;;;;5026096;28;20181;-79
2023/06/23 09:58:37;;;;;;;13.18;8.57;;;30.80;99.90;;;;;;5043145;28;20165;-78
2023/06/23 10:01:10;;;;;;;12.30;8.57;;;31.00;99.90;;;;;;5035802;28;20202;-79
2023/06/23 10:03:47;;;;;;;15.45;9.55;;;31.00;99.90;;;;;;5036355;28;20180;-81
2023/06/23 10:06:36;;;;;;;13.23;8.40;;;30.80;99.90;;;;;;5035968;28;20165;-79
2023/06/23 10:09:08;;;;;;;10.48;8.63;;;30.80;99.90;;;;;;5054688;28;20159;-80
2023/06/23 10:11:37;;;;;;;12.73;8.77;;;30.90;99.90;;;;;;5037174;28;20152;-78
2023/06/23 10:14:10;;;;;;;12.73;8.95;;;30.90;99.90;;;;;;5034889;28;20586;-81
2023/06/23 10:16:41;;;;;;;12.52;9.63;;;30.80;99.90;;;;;;5035078;28;20726;-79
2023/06/23 10:19:07;;;;;;;9.93;8.98;;;30.80;99.90;;;;;;5016682;28;20185;-79
2023/06/23 10:21:34;;;;;;;11.55;8.93;;;30.90;99.90;;;;;;5035759;28;20211;-77
2023/06/23 10:24:15;;;;;;;11.55;8.48;;;30.90;99.90;;;;;;5036827;28;20636;-78
2023/06/23 10:26:45;;;;;;;15.40;9.32;;;31.00;99.90;;;;;;5035878;28;20235;-79
2023/06/23 10:29:14;;;;;;;11.02;8.77;;;31.20;99.90;;;;;;5034897;28;20206;-79
2023/06/23 10:31:41;;;;;;;16.17;8.27;;;31.30;99.90;;;;;;5034562;28;20211;-82
2023/06/23 10:34:12;;;;;;;10.98;8.43;;;31.30;99.90;;;;;;5035666;28;20174;-81
2023/06/23 10:36:41;;;;;;;10.10;8.40;;;31.40;99.90;;;;;;5035463;28;20200;-82
2023/06/23 10:39:10;;;;;;;9.90;8.23;;;31.40;99.90;;;;;;5037358;28;20169;-82
2023/06/23 10:41:37;;;;;;;12.75;8.68;;;31.50;99.90;;;;;;5023347;28;20176;-80
2023/06/23 10:44:04;;;;;;;12.00;8.23;;;31.40;99.90;;;;;;5035694;28;20176;-79
2023/06/23 10:46:30;;;;;;;14.13;8.45;;;31.40;99.90;;;;;;5033852;28;20207;-81
2023/06/23 10:48:57;;;;;;;10.45;8.25;;;31.20;99.90;;;;;;5033615;28;20267;-81
2023/06/23 10:51:24;;;;;;;12.00;8.55;;;31.00;99.90;;;;;;5019128;28;20196;-80
2023/06/23 10:54:05;;;;;;;12.10;8.68;;;30.90;99.90;;;;;;5034216;28;20303;-81
2023/06/23 10:56:35;;;;;;;9.88;8.65;;;30.90;99.90;;;;;;5034167;28;20200;-80
2023/06/23 10:59:29;;;;;;;13.13;8.85;;;30.80;99.90;;;;;;5042642;28;20168;-79
2023/06/23 11:02:04;;;;;;;10.50;6.57;;;30.80;99.90;;;;;;5034241;28;20172;-78
2023/06/23 11:04:51;;;;;;;8.50;4.80;;;30.30;99.70;;;;;;5034442;28;20171;-77
2023/06/23 11:07:17;;;;;;;6.82;3.25;;;29.10;98.90;;;;;;5035495;28;20609;-78
2023/06/23 11:09:52;;;;;;;6.05;3.92;;;28.20;99.00;;;;;;5040052;28;20164;-80
2023/06/23 11:12:39;;;;;;;5.63;2.90;;;27.40;98.60;;;;;;5041484;28;20592;-76
2023/06/23 11:15:15;;;;;;;8.63;3.08;;;26.50;98.00;;;;;;5023081;28;20180;-77
2023/06/23 11:18:00;;;;;;;5.47;3.25;;;26.00;97.80;;;;;;5039768;28;20203;-80
2023/06/23 11:20:25;;;;;;;4.63;2.97;;;25.70;98.00;;;;;;5038631;28;20623;-78
2023/06/23 11:23:05;;;;;;;5.72;3.17;;;25.50;98.00;;;;;;5021743;28;20195;-79
2023/06/23 11:25:38;;;;;;;3.47;2.53;;;25.10;98.20;;;;;;5037927;28;20261;-78
2023/06/23 11:28:24;;;;;;;6.30;3.17;;;24.50;98.60;;;;;;5041501;28;20229;-79
2023/06/23 11:30:59;;;;;;;6.00;2.60;;;23.50;99.30;;;;;;5042105;28;20176;-80
2023/06/23 11:33:32;;;;;;;4.47;2.40;;;23.10;99.70;;;;;;5042584;28;20248;-80
2023/06/23 11:36:03;;;;;;;8.07;2.93;;;22.70;99.70;;;;;;5052164;28;20617;-79
2023/06/23 11:38:31;;;;;;;4.97;2.60;;;22.40;99.90;;;;;;5025192;28;20169;-79
2023/06/23 11:40:58;;;;;;;5.43;2.33;;;22.40;99.90;;;;;;5040149;28;20180;-79
2023/06/23 11:43:24;;;;;;;2.73;2.53;;;22.40;99.90;;;;;;5039782;28;20184;-79
2023/06/23 11:45:56;;;;;;;3.63;2.47;;;22.40;99.90;;;;;;5034178;28;20165;-78
2023/06/23 11:48:27;;;;;;;4.93;3.10;;;22.30;99.90;;;;;;5033970;28;20210;-77
2023/06/23 11:50:57;;;;;;;3.23;2.67;;;22.30;99.90;;;;;;5046454;28;20236;-77
2023/06/23 11:53:23;;;;;;;3.67;2.90;;;22.20;99.90;;;;;;5025743;28;20188;-77
2023/06/23 11:55:50;;;;;;;8.17;2.93;;;22.10;99.90;;;;;;5040294;28;20215;-77
2023/06/23 11:58:17;;;;;;;5.80;2.70;;;22.10;99.90;;;;;;5021721;28;20188;-80
2023/06/23 12:00:42;;;;;;;3.90;2.83;;;22.20;99.90;;;;;;5037031;28;20184;-78
2023/06/23 12:03:13;;;;;;;6.60;3.40;;;22.20;99.90;;;;;;5036740;28;20182;-77
2023/06/23 12:05:41;;;;;;;4.97;2.97;;;22.20;99.90;;;;;;5036835;28;20201;-77
2023/06/23 12:08:07;;;;;;;2.90;2.70;;;22.10;99.90;;;;;;5036772;28;20176;-75
2023/06/23 12:10:40;;;;;;;2.73;2.40;;;22.00;99.90;;;;;;5036339;28;20177;-76
2023/06/23 12:13:10;;;;;;;3.63;3.00;;;21.90;99.90;;;;;;5036669;28;20263;-78
2023/06/23 12:15:40;;;;;;;2.53;2.33;;;22.00;99.90;;;;;;5036817;28;20169;-78
2023/06/23 12:18:07;;;;;;;3.97;2.50;;;21.90;99.90;;;;;;5018546;28;20672;-76
2023/06/23 12:20:38;;;;;;;6.07;2.47;;;21.90;99.90;;;;;;5036083;28;20542;-78
2023/06/23 12:23:05;;;;;;;3.73;3.03;;;21.80;99.90;;;;;;5036189;28;20181;-76
2023/06/23 12:25:37;;;;;;;4.47;2.50;;;21.90;99.90;;;;;;5038373;28;20172;-77
2023/06/23 12:28:03;;;;;;;3.07;2.80;;;21.90;99.90;;;;;;5036123;28;20164;-81
2023/06/23 12:30:40;;;;;;;4.73;2.97;;;22.00;99.90;;;;;;5036035;28;20164;-77
2023/06/23 12:33:16;;;;;;;2.33;2.10;;;22.20;99.90;;;;;;5035955;28;20613;-79
2023/06/23 12:36:04;;;;;;;2.70;2.20;;;22.20;99.90;;;;;;5035996;28;20211;-79
2023/06/23 12:38:32;;;;;;;2.77;2.40;;;22.30;99.90;;;;;;5038769;28;20195;-79
2023/06/23 12:41:18;;;;;;;3.23;2.07;;;22.20;99.90;;;;;;5042296;28;20243;-81
2023/06/23 12:43:45;;;;;;;2.03;1.93;;;22.20;99.90;;;;;;5036525;28;20558;-77
2023/06/23 12:46:12;;;;;;;3.47;1.87;;;22.20;99.90;;;;;;5036420;28;20629;-78